Time;durP1;ratioP1;P1;durP2;ratioP2;P2;SDS_P1;SDS_P2;PMS_P1;PMS_P2;Temp;Humidity;BMP_temperature;BMP_pressure;BME280_temperature;BME280_humidity;BME280_pressure;Samples;Min_cycle;Max_cycle;Signal;HPM_P1;HPM_P2
2022/01/20 00:01:25;;;;;;;47.45;28.50;;;;;;;2.83;70.97;99897.84;2095297;84;31056;-59
2022/01/20 00:07:31;;;;;;;37.08;21.85;;;;;;;2.86;70.96;99883.23;2106713;83;29357;-59
2022/01/20 00:26:49;;;;;;;29.77;17.27;;;;;;;2.91;70.68;99856.65;2225311;78;28179;-59
2022/01/20 00:39:13;;;;;;;27.32;15.58;;;;;;;2.95;70.57;99850.85;2262670;78;30175;-59
2022/01/20 00:42:16;;;;;;;29.77;17.05;;;;;;;2.96;70.58;99849.95;2262741;78;28244;-59
2022/01/20 00:45:18;;;;;;;23.35;15.75;;;;;;;2.97;70.71;99851.22;2262699;78;28638;-59
2022/01/20 00:48:22;;;;;;;24.47;15.20;;;;;;;2.99;70.57;99853.81;2276588;77;31743;-60
2022/01/20 00:51:24;;;;;;;25.48;14.78;;;;;;;2.99;70.52;99850.73;2294542;77;33415;-59
2022/01/20 00:54:26;;;;;;;26.55;15.03;;;;;;;3.00;70.44;99855.11;2294853;77;29353;-59
2022/01/20 00:57:28;;;;;;;22.30;14.35;;;;;;;3.00;70.47;99852.90;2272327;77;27579;-59
2022/01/20 01:00:29;;;;;;;24.52;15.20;;;;;;;3.00;70.43;99847.17;2245941;78;28707;-59
2022/01/20 01:03:31;;;;;;;25.50;16.05;;;;;;;3.01;70.45;99848.91;2224779;79;31010;-59
2022/01/20 01:07:03;;;;;;;25.65;15.13;;;;;;;3.03;70.39;99852.83;2198396;79;33004;-59
2022/01/20 01:09:48;;;;;;;25.88;15.38;;;;;;;3.04;70.50;99847.95;2195655;80;29513;-59
2022/01/20 01:12:56;;;;;;;25.48;15.05;;;;;;;3.06;70.53;99845.28;2197540;81;27686;-60
2022/01/20 01:15:55;;;;;;;22.57;15.30;;;;;;;3.06;70.62;99841.31;2198292;80;28649;-58
2022/01/20 01:25:18;;;;;;;23.45;14.50;;;;;;;3.09;70.59;99845.18;2198145;80;30094;-59
2022/01/20 01:28:22;;;;;;;20.70;13.93;;;;;;;3.10;70.67;99847.80;2208325;79;27693;-59
2022/01/20 01:31:34;;;;;;;21.52;13.15;;;;;;;3.11;70.70;99844.25;2214468;79;29225;-59
2022/01/20 01:34:35;;;;;;;17.12;11.28;;;;;;;3.12;70.72;99845.10;2214645;79;31056;-59
2022/01/20 01:38:25;;;;;;;16.52;11.57;;;;;;;3.12;70.88;99843.78;2198370;80;33628;-59
2022/01/20 01:40:42;;;;;;;15.72;10.38;;;;;;;3.13;70.93;99839.79;2195355;81;29380;-59
2022/01/20 01:43:48;;;;;;;11.55;9.03;;;;;;;3.13;71.12;99830.97;2198565;80;27717;-59
2022/01/20 01:46:51;;;;;;;12.88;7.62;;;;;;;3.12;71.24;99827.47;2200509;79;28649;-59
2022/01/20 01:49:53;;;;;;;8.53;6.33;;;;;;;3.11;71.40;99809.84;2245101;79;31010;-60
2022/01/20 01:52:57;;;;;;;10.30;6.87;;;;;;;3.08;71.59;99809.92;2207824;79;33038;-59
2022/01/20 01:55:59;;;;;;;8.43;6.08;;;;;;;3.09;71.71;99811.66;2197659;80;29345;-60
2022/01/20 01:59:01;;;;;;;8.18;5.75;;;;;;;3.09;71.88;99802.84;2198786;79;27681;-59
2022/01/20 02:02:03;;;;;;;6.42;5.65;;;;;;;3.10;71.94;99804.14;2222063;80;29202;-59
2022/01/20 02:05:09;;;;;;;10.72;6.40;;;;;;;3.13;72.06;99804.50;2222514;78;31694;-59
2022/01/20 02:18:12;;;;;;;7.72;5.67;;;;;;;3.21;72.29;99777.38;2260989;77;28724;-59
2022/01/20 02:21:03;;;;;;;8.10;6.12;;;;;;;3.22;72.43;99763.23;2225955;78;31721;-59
2022/01/20 02:24:06;;;;;;;7.55;5.58;;;;;;;3.23;72.48;99766.27;2222223;80;32954;-61
2022/01/20 02:27:07;;;;;;;7.72;5.10;;;;;;;3.25;72.52;99763.59;2222424;80;29355;-59
2022/01/20 02:30:10;;;;;;;8.38;5.83;;;;;;;3.25;72.54;99760.48;2222942;80;27675;-60
2022/01/20 02:33:18;;;;;;;5.87;5.20;;;;;;;3.26;72.64;99770.63;2222791;78;29718;-60
2022/01/20 02:36:20;;;;;;;6.67;5.10;;;;;;;3.28;72.70;99760.87;2222641;78;30443;-59
2022/01/20 02:39:58;;;;;;;6.00;5.17;;;;;;;3.30;72.67;99755.93;2222286;78;33083;-60
2022/01/20 02:45:54;;;;;;;9.13;5.22;;;;;;;3.37;72.76;99750.47;2222409;80;28002;-64
2022/01/20 02:48:59;;;;;;;5.75;4.70;;;;;;;3.40;72.85;99751.68;2254609;77;29788;-60
2022/01/20 02:52:01;;;;;;;7.37;4.83;;;;;;;3.40;73.12;99749.92;2242660;78;31021;-59
2022/01/20 02:55:04;;;;;;;5.53;4.53;;;;;;;3.39;73.22;99752.16;2222277;80;34127;-60
2022/01/20 02:58:07;;;;;;;5.20;4.53;;;;;;;3.38;73.43;99743.80;2258395;77;29965;-60
2022/01/20 03:01:09;;;;;;;8.48;5.03;;;;;;;3.37;73.60;99744.70;2248873;78;27684;-59
2022/01/20 03:04:11;;;;;;;6.90;4.45;;;;;;;3.35;73.74;99745.20;2215798;79;28704;-60
2022/01/20 03:07:13;;;;;;;5.05;4.08;;;;;;;3.33;73.92;99745.70;2198089;79;30859;-59
2022/01/20 03:10:16;;;;;;;6.08;4.87;;;;;;;3.31;73.97;99741.78;2198181;81;33772;-60
2022/01/20 03:13:19;;;;;;;7.80;4.80;;;;;;;3.30;74.12;99737.40;2197831;80;29427;-59
2022/01/20 03:16:20;;;;;;;5.85;4.28;;;;;;;3.31;74.23;99734.31;2199030;79;27641;-61
2022/01/20 03:19:25;;;;;;;5.62;5.00;;;;;;;3.30;74.33;99735.22;2229817;79;28727;-59
2022/01/20 03:22:27;;;;;;;8.18;5.05;;;;;;;3.28;74.36;99722.48;2197483;80;30959;-60
2022/01/20 03:25:29;;;;;;;7.85;4.25;;;;;;;3.27;74.42;99724.72;2198549;79;33018;-59
2022/01/20 03:28:30;;;;;;;5.37;4.30;;;;;;;3.27;74.61;99715.45;2198445;79;29386;-59
2022/01/20 03:31:32;;;;;;;5.45;4.15;;;;;;;3.27;74.54;99711.01;2197930;81;27721;-60
2022/01/20 03:34:34;;;;;;;6.55;4.90;;;;;;;3.27;74.67;99708.36;2198500;81;28681;-60
2022/01/20 03:37:36;;;;;;;5.15;4.35;;;;;;;3.30;74.67;99721.98;2198104;81;31064;-59
2022/01/20 03:40:38;;;;;;;6.03;4.42;;;;;;;3.30;74.70;99713.58;2198496;81;33001;-60
2022/01/20 03:43:40;;;;;;;5.87;4.75;;;;;;;3.32;74.75;99710.43;2198177;80;30209;-60
2022/01/20 03:46:42;;;;;;;5.83;4.85;;;;;;;3.34;74.76;99713.02;2203158;79;27708;-60
2022/01/20 03:50:06;;;;;;;4.42;3.80;;;;;;;3.34;74.71;99710.38;2245215;78;28765;-60
2022/01/20 03:52:57;;;;;;;7.03;4.33;;;;;;;3.35;74.76;99709.46;2242832;79;32331;-61
2022/01/20 03:55:59;;;;;;;6.90;4.28;;;;;;;3.36;74.81;99715.64;2242529;78;33938;-60
2022/01/20 03:59:00;;;;;;;7.50;4.37;;;;;;;3.36;74.85;99719.61;2237331;79;29364;-60
2022/01/20 04:02:05;;;;;;;7.42;4.62;;;;;;;3.34;74.91;99713.91;2216234;80;27677;-60
2022/01/20 04:05:08;;;;;;;5.33;3.50;;;;;;;3.35;74.98;99718.73;2221741;80;28756;-59
2022/01/20 04:08:10;;;;;;;8.23;4.28;;;;;;;3.36;75.02;99727.08;2222303;80;31619;-59
2022/01/20 04:11:15;;;;;;;9.53;3.25;;;;;;;3.36;74.93;99713.84;2250873;77;33616;-60
2022/01/20 04:14:17;;;;;;;9.78;3.25;;;;;;;3.33;74.76;99726.73;2222220;80;29342;-61
2022/01/20 04:17:21;;;;;;;6.03;4.00;;;;;;;3.28;74.76;99729.10;2221467;80;28308;-59
2022/01/20 04:20:22;;;;;;;9.93;4.85;;;;;;;3.24;74.77;99731.42;2222544;80;28679;-60
2022/01/20 04:23:24;;;;;;;7.28;4.97;;;;;;;3.19;74.88;99734.20;2222272;80;31820;-59
2022/01/20 04:26:28;;;;;;;10.28;5.25;;;;;;;3.16;74.99;99734.28;2222532;80;33039;-60
2022/01/20 04:29:30;;;;;;;7.92;5.03;;;;;;;3.15;75.08;99737.37;2273858;77;29935;-60
2022/01/20 04:32:31;;;;;;;7.10;4.67;;;;;;;3.16;75.06;99725.02;2290804;77;27705;-60
2022/01/20 04:35:33;;;;;;;9.20;4.85;;;;;;;3.12;75.02;99719.39;2294570;77;28804;-60
2022/01/20 04:38:34;;;;;;;8.55;5.08;;;;;;;3.08;74.97;99721.70;2293541;77;30997;-59
2022/01/20 04:41:36;;;;;;;11.10;5.92;;;;;;;3.00;74.89;99723.25;2222167;80;33806;-59
2022/01/20 04:44:45;;;;;;;9.38;4.78;;;;;;;2.95;74.99;99726.50;2222298;78;30155;-59
2022/01/20 04:47:52;;;;;;;16.65;4.75;;;;;;;2.92;75.04;99726.10;2221353;80;28107;-59
2022/01/20 04:57:26;;;;;;;13.30;4.55;;;;;;;2.88;74.92;99708.13;2222124;78;33005;-59
2022/01/20 05:00:28;;;;;;;18.25;4.67;;;;;;;2.89;74.92;99718.28;2245699;78;29378;-59
2022/01/20 05:03:30;;;;;;;14.40;4.12;;;;;;;2.89;74.88;99724.42;2262486;77;27878;-59
2022/01/20 05:06:32;;;;;;;22.27;5.33;;;;;;;2.94;74.82;99736.20;2262707;78;28677;-59
2022/01/20 05:09:34;;;;;;;15.20;3.83;;;;;;;2.97;74.80;99744.05;2262695;78;31031;-59
2022/01/20 05:15:53;;;;;;;15.40;3.65;;;;;;;3.02;74.66;99742.16;2262320;78;29402;-59
2022/01/20 05:18:54;;;;;;;13.40;3.45;;;;;;;3.04;74.56;99736.81;2262502;78;27711;-59
2022/01/20 05:21:56;;;;;;;11.78;3.75;;;;;;;3.05;74.36;99727.97;2262545;78;28716;-60
2022/01/20 05:24:58;;;;;;;11.33;3.30;;;;;;;3.04;74.24;99724.91;2262279;78;31027;-59
2022/01/20 05:28:00;;;;;;;11.03;3.00;;;;;;;3.02;74.17;99735.98;2268825;77;33012;-60
2022/01/20 05:31:01;;;;;;;14.15;3.58;;;;;;;3.00;74.08;99742.66;2287127;77;29998;-59
2022/01/20 05:34:03;;;;;;;14.03;3.92;;;;;;;2.99;73.89;99746.64;2286771;77;27591;-59
2022/01/20 05:37:05;;;;;;;14.90;3.47;;;;;;;2.98;73.92;99755.52;2286906;77;28647;-59
2022/01/20 05:40:08;;;;;;;15.78;4.28;;;;;;;2.97;73.83;99749.34;2286732;77;32434;-59
2022/01/20 05:43:12;;;;;;;18.27;4.05;;;;;;;2.96;73.79;99750.25;2286943;77;33588;-60
2022/01/20 05:46:15;;;;;;;18.23;3.45;;;;;;;2.95;73.78;99745.88;2286917;77;29352;-59
2022/01/20 05:49:23;;;;;;;17.37;4.03;;;;;;;2.92;73.55;99735.84;2285830;77;27687;-60
2022/01/20 05:52:25;;;;;;;14.45;3.05;;;;;;;2.90;73.55;99743.80;2246461;77;28700;-60
2022/01/20 05:55:27;;;;;;;10.08;4.05;;;;;;;2.91;73.54;99739.39;2222401;80;31035;-60
2022/01/20 05:58:29;;;;;;;14.05;2.85;;;;;;;2.88;73.33;99743.84;2247884;77;33663;-60
2022/01/20 06:01:36;;;;;;;12.03;2.62;;;;;;;2.87;73.23;99730.67;2215401;77;29323;-61
2022/01/20 06:04:35;;;;;;;15.80;2.87;;;;;;;2.86;73.30;99738.20;2198115;80;27669;-61
2022/01/20 06:07:36;;;;;;;10.93;2.62;;;;;;;2.82;72.98;99738.71;2198635;80;28717;-61
2022/01/20 06:10:38;;;;;;;16.55;2.90;;;;;;;2.76;72.82;99735.36;2198789;79;31094;-61
2022/01/20 06:13:40;;;;;;;19.07;2.72;;;;;;;2.69;72.88;99741.27;2198279;81;33664;-60
2022/01/20 06:16:43;;;;;;;9.53;2.95;;;;;;;2.63;72.83;99748.06;2199136;79;29673;-61
2022/01/20 06:19:44;;;;;;;14.85;3.60;;;;;;;2.58;72.84;99750.80;2198834;79;28299;-60
2022/01/20 06:22:46;;;;;;;10.48;2.17;;;;;;;2.52;72.75;99750.52;2198618;79;28692;-61
2022/01/20 06:25:49;;;;;;;14.87;2.37;;;;;;;2.49;72.65;99760.31;2197909;81;31014;-61
2022/01/20 06:28:50;;;;;;;14.33;3.22;;;;;;;2.45;72.68;99749.39;2222698;79;32963;-59
2022/01/20 06:31:52;;;;;;;9.98;3.35;;;;;;;2.38;72.57;99741.63;2237046;79;29318;-59
2022/01/20 06:34:54;;;;;;;12.33;3.30;;;;;;;2.30;72.56;99738.29;2232864;79;27664;-58
2022/01/20 06:37:55;;;;;;;11.35;3.20;;;;;;;2.21;72.58;99722.20;2198202;80;28473;-59
2022/01/20 06:40:58;;;;;;;9.90;2.52;;;;;;;2.12;72.55;99732.55;2198703;79;31026;-59
2022/01/20 06:44:00;;;;;;;12.53;2.85;;;;;;;2.03;72.43;99723.53;2198867;79;33584;-59
2022/01/20 06:47:03;;;;;;;18.80;2.80;;;;;;;1.94;72.46;99733.87;2197886;81;30154;-60
2022/01/20 06:50:08;;;;;;;12.90;3.25;;;;;;;1.87;72.40;99722.16;2198492;81;27657;-59
2022/01/20 06:53:10;;;;;;;12.65;3.25;;;;;;;1.78;72.39;99712.21;2198889;79;28665;-59
2022/01/20 06:56:12;;;;;;;16.27;3.37;;;;;;;1.73;72.37;99726.00;2198622;79;31028;-59
2022/01/20 06:59:19;;;;;;;13.53;2.47;;;;;;;1.66;72.31;99729.20;2230694;79;32800;-59
2022/01/20 07:02:21;;;;;;;9.03;2.40;;;;;;;1.62;72.31;99729.30;2244786;77;29330;-60
2022/01/20 07:05:23;;;;;;;15.58;3.37;;;;;;;1.60;72.37;99703.39;2200982;79;28219;-59
2022/01/20 07:08:25;;;;;;;13.75;3.45;;;;;;;1.58;72.43;99706.08;2198804;79;29590;-58
2022/01/20 07:11:27;;;;;;;21.33;3.12;;;;;;;1.61;72.38;99695.45;2203838;79;31677;-59
2022/01/20 07:14:30;;;;;;;12.60;3.00;;;;;;;1.65;72.45;99696.23;2172617;81;32757;-58
2022/01/20 07:17:32;;;;;;;17.27;3.77;;;;;;;1.69;72.41;99701.88;2187903;81;30067;-59
2022/01/20 07:20:35;;;;;;;16.60;2.98;;;;;;;1.74;72.41;99699.13;2187423;81;28293;-59
2022/01/20 07:23:36;;;;;;;14.98;2.85;;;;;;;1.85;72.40;99689.16;2187880;81;29382;-59
2022/01/20 07:26:38;;;;;;;11.78;2.77;;;;;;;1.98;72.45;99673.90;2187498;81;31517;-59
2022/01/20 07:29:39;;;;;;;22.62;3.72;;;;;;;2.16;72.25;99680.95;2189489;80;32856;-59
2022/01/20 07:32:41;;;;;;;14.40;3.22;;;;;;;2.27;71.97;99686.39;2167904;82;29882;-61
2022/01/20 07:35:43;;;;;;;21.20;3.67;;;;;;;2.36;71.94;99665.90;2168238;82;28326;-58
2022/01/20 07:38:45;;;;;;;20.52;3.50;;;;;;;2.42;71.75;99659.99;2166330;81;28702;-59
2022/01/20 07:41:47;;;;;;;18.23;4.53;;;;;;;2.47;71.54;99648.00;2152047;82;31069;-59
2022/01/20 07:44:50;;;;;;;18.50;3.60;;;;;;;2.49;71.44;99644.83;2152057;81;32788;-60
2022/01/20 07:47:51;;;;;;;14.28;3.75;;;;;;;2.51;71.39;99652.27;2151329;82;29460;-59
2022/01/20 07:50:53;;;;;;;20.23;4.22;;;;;;;2.53;71.29;99647.81;2152480;82;27674;-58
2022/01/20 07:53:56;;;;;;;13.70;3.65;;;;;;;2.57;71.09;99642.86;2152042;82;29544;-58
2022/01/20 07:56:58;;;;;;;30.68;5.45;;;;;;;2.63;70.90;99640.97;2152104;82;31733;-58
2022/01/20 08:00:00;;;;;;;23.75;3.98;;;;;;;2.70;70.79;99631.94;2151969;82;33819;-59
2022/01/20 08:03:02;;;;;;;20.82;4.40;;;;;;;2.76;70.69;99631.77;2152004;81;30014;-58
2022/01/20 08:06:04;;;;;;;21.45;4.05;;;;;;;2.87;70.60;99631.47;2152355;82;27770;-58
2022/01/20 08:09:06;;;;;;;22.00;4.37;;;;;;;3.01;70.85;99635.91;2152131;82;29399;-58
2022/01/20 08:12:09;;;;;;;15.95;3.37;;;;;;;3.14;70.23;99645.67;2152027;82;32501;-58
2022/01/20 08:15:12;;;;;;;23.52;3.77;;;;;;;3.19;70.21;99631.83;2152632;82;33887;-58
2022/01/20 08:18:14;;;;;;;17.23;3.30;;;;;;;3.22;70.26;99640.59;2152248;82;29358;-59
2022/01/20 08:21:16;;;;;;;16.50;3.10;;;;;;;3.18;70.38;99650.41;2152066;82;28287;-59
2022/01/20 08:24:18;;;;;;;22.42;8.78;;;;;;;3.12;70.87;99666.47;2152323;82;28673;-59
2022/01/20 08:27:20;;;;;;;13.15;5.10;;;;;;;2.97;71.37;99710.13;2151958;82;32266;-58
2022/01/20 08:30:24;;;;;;;7.70;2.42;;;;;;;2.73;71.66;99735.00;2151834;82;34404;-57
2022/01/20 08:33:26;;;;;;;5.30;1.75;;;;;;;2.39;71.59;99715.61;2152298;82;29960;-57
2022/01/20 08:36:28;;;;;;;6.12;2.00;;;;;;;2.16;71.85;99717.48;2151407;82;27723;-57
2022/01/20 08:42:34;;;;;;;5.12;1.57;;;;;;;1.89;72.30;99762.62;2152528;81;31017;-57
2022/01/20 08:45:38;;;;;;;7.12;1.87;;;;;;;1.80;72.29;99765.02;2152059;82;33041;-58
2022/01/20 08:48:40;;;;;;;9.18;2.35;;;;;;;1.73;72.50;99752.83;2179086;81;29497;-62
2022/01/20 08:51:42;;;;;;;12.25;2.30;;;;;;;1.69;72.71;99758.64;2189168;81;27710;-61
2022/01/20 08:54:45;;;;;;;9.05;2.85;;;;;;;1.66;72.82;99753.42;2189618;81;29382;-57
2022/01/20 08:57:48;;;;;;;6.72;2.67;;;;;;;1.62;72.89;99755.27;2178866;81;31080;-58
2022/01/20 09:00:49;;;;;;;10.88;3.22;;;;;;;1.57;72.87;99757.13;2237707;79;33112;-58
2022/01/20 09:03:51;;;;;;;24.80;9.03;;;;;;;1.55;73.01;99748.84;2186409;79;29777;-57
2022/01/20 09:06:54;;;;;;;16.57;9.60;;;;;;;1.49;72.89;99741.46;2262508;78;27719;-57
2022/01/20 09:09:59;;;;;;;26.68;19.55;;;;;;;1.51;73.16;99737.45;2262732;78;28721;-57
2022/01/20 09:16:22;;;;;;;10.28;5.47;;;;;;;1.54;73.11;99758.98;2260828;78;27926;-57
2022/01/20 09:19:24;;;;;;;8.35;3.40;;;;;;;1.52;72.99;99765.59;2262066;78;29477;-57
2022/01/20 09:22:28;;;;;;;11.65;3.37;;;;;;;1.51;72.82;99766.05;2262276;78;27735;-58
2022/01/20 09:25:29;;;;;;;8.10;2.90;;;;;;;1.53;72.81;99767.80;2262461;78;28723;-59
2022/01/20 09:28:31;;;;;;;7.50;2.80;;;;;;;1.53;72.75;99783.63;2261793;78;32228;-58
2022/01/20 09:31:37;;;;;;;13.68;3.85;;;;;;;1.54;72.72;99781.42;2261888;78;34052;-58
2022/01/20 09:34:37;;;;;;;9.65;3.52;;;;;;;1.54;72.81;99795.47;2261772;78;29339;-59
2022/01/20 09:37:42;;;;;;;7.78;2.52;;;;;;;1.53;72.71;99802.97;2262348;78;27684;-58
2022/01/20 09:40:44;;;;;;;12.15;2.27;;;;;;;1.55;72.98;99801.63;2262715;78;29229;-58
2022/01/20 09:43:46;;;;;;;11.20;3.40;;;;;;;1.55;73.04;99817.47;2262129;78;32316;-58
2022/01/20 09:46:48;;;;;;;5.65;2.17;;;;;;;1.47;73.24;99836.97;2262086;78;33000;-59
2022/01/20 09:49:51;;;;;;;6.62;2.90;;;;;;;1.30;73.45;99858.41;2262213;78;30206;-58
2022/01/20 09:52:58;;;;;;;8.05;3.80;;;;;;;1.16;73.56;99857.34;2260203;78;27666;-65
2022/01/20 09:55:59;;;;;;;4.60;2.10;;;;;;;1.03;73.64;99866.38;2241361;78;29824;-63
2022/01/20 09:59:02;;;;;;;5.20;2.72;;;;;;;0.88;73.79;99872.34;2222007;78;31455;-57
2022/01/20 10:02:08;;;;;;;10.43;3.58;;;;;;;0.78;74.08;99856.70;2222194;80;33624;-57
2022/01/20 10:05:10;;;;;;;8.48;2.87;;;;;;;0.70;73.81;99860.31;2221117;80;30788;-58
2022/01/20 10:08:28;;;;;;;10.13;3.75;;;;;;;0.70;73.72;99870.86;2222057;80;27590;-57
2022/01/20 10:11:30;;;;;;;13.28;4.53;;;;;;;0.69;73.71;99871.75;2222581;78;28716;-57
2022/01/20 10:14:46;;;;;;;10.23;3.47;;;;;;;0.79;73.55;99868.52;2222186;78;31665;-57
2022/01/20 10:17:47;;;;;;;13.68;4.65;;;;;;;0.95;73.48;99859.92;2262578;78;32945;-58
2022/01/20 10:20:56;;;;;;;22.85;5.67;;;;;;;1.06;73.13;99868.97;2261740;78;30446;-58
2022/01/20 10:24:11;;;;;;;16.12;5.35;;;;;;;1.09;72.84;99868.89;2262569;78;27631;-57
2022/01/20 10:27:16;;;;;;;24.97;8.80;;;;;;;1.08;72.41;99874.20;2262837;78;28645;-58
2022/01/20 10:30:28;;;;;;;35.48;13.88;;;;;;;1.03;71.95;99871.66;2262246;78;32403;-57
2022/01/20 10:33:38;;;;;;;10.80;4.97;;;;;;;0.93;71.82;99866.98;2262113;78;34714;-57
2022/01/20 10:36:54;;;;;;;16.15;6.22;;;;;;;0.78;71.39;99878.64;2262179;78;29475;-57
2022/01/20 10:40:15;;;;;;;13.80;5.05;;;;;;;0.71;71.62;99877.88;2243457;78;28299;-59
2022/01/20 10:43:26;;;;;;;12.58;4.12;;;;;;;0.72;71.80;99882.72;2222856;78;28718;-58
2022/01/20 10:46:28;;;;;;;26.60;8.50;;;;;;;0.74;71.60;99883.11;2222265;80;31743;-59
2022/01/20 10:49:32;;;;;;;12.82;4.60;;;;;;;0.80;71.36;99877.32;2221767;78;33426;-58
2022/01/20 10:52:36;;;;;;;22.17;7.37;;;;;;;0.83;70.96;99866.73;2223000;78;29346;-58
2022/01/20 10:55:38;;;;;;;16.02;6.42;;;;;;;0.93;71.31;99875.33;2222682;78;27684;-58
2022/01/20 10:58:39;;;;;;;24.63;10.35;;;;;;;1.09;71.01;99868.03;2222349;78;30057;-57
2022/01/20 11:01:42;;;;;;;18.92;6.67;;;;;;;1.21;70.48;99865.16;2221879;80;31943;-57
2022/01/20 11:04:44;;;;;;;21.85;9.35;;;;;;;1.28;70.59;99876.47;2221202;79;33686;-58
2022/01/20 11:07:48;;;;;;;21.45;8.65;;;;;;;1.28;70.05;99857.57;2222551;80;29389;-58
2022/01/20 11:10:51;;;;;;;34.30;14.30;;;;;;;1.27;69.81;99872.98;2222727;78;28255;-58
2022/01/20 11:13:54;;;;;;;27.27;10.63;;;;;;;1.30;70.14;99866.33;2222269;80;28704;-58
2022/01/20 11:16:59;;;;;;;28.20;10.30;;;;;;;1.33;69.64;99852.20;2222467;80;31203;-58
2022/01/20 11:20:16;;;;;;;32.88;9.85;;;;;;;1.29;69.32;99861.95;2222348;78;32925;-58
2022/01/20 11:23:17;;;;;;;26.52;7.40;;;;;;;1.29;68.99;99860.63;2220927;80;29336;-58
2022/01/20 11:26:20;;;;;;;17.32;6.45;;;;;;;1.28;68.76;99873.84;2222168;80;28097;-59
2022/01/20 11:29:25;;;;;;;26.85;9.25;;;;;;;1.26;68.47;99876.95;2256622;78;29475;-58
2022/01/20 11:32:29;;;;;;;24.80;8.35;;;;;;;1.26;68.17;99869.03;2236161;78;31012;-59
2022/01/20 11:35:51;;;;;;;20.90;7.00;;;;;;;1.26;68.38;99877.84;2221255;80;34199;-59
2022/01/20 11:39:00;;;;;;;11.90;3.65;;;;;;;1.29;67.76;99864.59;2222210;78;30529;-59
2022/01/20 11:42:03;;;;;;;19.25;5.05;;;;;;;1.31;67.06;99868.51;2220685;80;27708;-59
2022/01/20 11:45:32;;;;;;;13.32;5.00;;;;;;;1.34;66.72;99869.78;2222156;78;29298;-59
2022/01/20 11:48:34;;;;;;;15.32;4.28;;;;;;;1.40;66.96;99860.87;2222551;78;31937;-58
2022/01/20 11:51:50;;;;;;;16.62;6.00;;;;;;;1.46;66.39;99868.22;2221293;80;33882;-58
2022/01/20 11:54:52;;;;;;;20.65;6.50;;;;;;;1.51;65.77;99870.33;2222614;78;29332;-58
2022/01/20 11:57:54;;;;;;;11.10;2.85;;;;;;;1.56;65.88;99869.38;2221927;80;27680;-60
2022/01/20 12:01:09;;;;;;;11.08;3.60;;;;;;;1.60;64.81;99875.88;2222691;78;27988;-58
2022/01/20 12:04:11;;;;;;;17.37;7.12;;;;;;;1.65;65.10;99872.70;2221295;80;32183;-58
2022/01/20 12:07:18;;;;;;;10.80;3.52;;;;;;;1.74;65.16;99876.05;2222265;80;33268;-58
2022/01/20 12:10:28;;;;;;;7.55;2.37;;;;;;;1.77;64.41;99868.92;2219921;80;30414;-58
2022/01/20 12:13:31;;;;;;;8.78;2.25;;;;;;;1.81;64.93;99872.39;2222204;80;28217;-58
2022/01/20 12:16:35;;;;;;;9.50;2.83;;;;;;;1.89;64.68;99877.52;2221980;80;30053;-58
2022/01/20 12:19:38;;;;;;;7.95;1.82;;;;;;;1.92;64.11;99870.82;2222334;80;31247;-60
2022/01/20 12:22:42;;;;;;;9.50;2.50;;;;;;;1.99;63.22;99871.13;2222385;80;33580;-59
2022/01/20 12:25:44;;;;;;;7.67;1.85;;;;;;;2.05;64.06;99877.61;2222369;80;35208;-59
2022/01/20 12:28:47;;;;;;;13.18;2.22;;;;;;;2.12;64.30;99878.34;2221218;80;27700;-58
2022/01/20 12:31:54;;;;;;;7.37;2.00;;;;;;;2.12;63.09;99874.38;2239340;78;29334;-60
2022/01/20 12:34:59;;;;;;;8.50;3.17;;;;;;;2.16;64.03;99881.78;2262312;78;31019;-58
2022/01/20 12:38:03;;;;;;;10.55;3.00;;;;;;;2.17;63.80;99872.95;2262626;78;32960;-58
2022/01/20 12:41:16;;;;;;;10.55;2.87;;;;;;;2.15;63.33;99871.67;2259903;78;30209;-58
2022/01/20 12:44:18;;;;;;;10.20;3.22;;;;;;;2.21;63.81;99871.98;2262041;78;27683;-58
2022/01/20 12:47:26;;;;;;;18.40;3.00;;;;;;;2.22;63.16;99870.62;2262323;78;29170;-58
2022/01/20 12:50:29;;;;;;;12.33;3.10;;;;;;;2.27;63.57;99870.08;2262552;78;32736;-57
2022/01/20 12:53:38;;;;;;;12.93;3.72;;;;;;;2.32;63.51;99874.39;2262561;78;32976;-57
2022/01/20 12:56:47;;;;;;;13.70;2.50;;;;;;;2.35;63.48;99865.94;2262252;78;30293;-59
2022/01/20 12:59:49;;;;;;;14.28;4.15;;;;;;;2.39;63.52;99850.86;2262329;78;27694;-57
2022/01/20 13:02:52;;;;;;;14.60;4.00;;;;;;;2.35;63.32;99857.12;2262204;78;29543;-57
2022/01/20 13:05:57;;;;;;;13.20;3.30;;;;;;;2.33;63.02;99857.60;2238082;78;33098;-58
2022/01/20 13:09:08;;;;;;;15.95;4.35;;;;;;;2.30;62.21;99856.37;2237188;79;34099;-58
2022/01/20 13:12:13;;;;;;;13.10;2.67;;;;;;;2.27;62.50;99862.14;2176877;81;29388;-58
2022/01/20 13:15:23;;;;;;;12.03;3.85;;;;;;;2.35;62.57;99865.94;2237840;79;27779;-58
2022/01/20 13:18:24;;;;;;;15.10;2.85;;;;;;;2.43;61.97;99867.94;2176708;81;28638;-58
2022/01/20 13:21:44;;;;;;;11.80;3.17;;;;;;;2.50;62.53;99871.77;2236902;79;32288;-58
2022/01/20 13:24:46;;;;;;;7.92;2.95;;;;;;;2.55;62.16;99871.22;2175881;81;33629;-58
2022/01/20 13:28:01;;;;;;;9.45;2.87;;;;;;;2.58;61.91;99865.39;2237264;79;30544;-58
2022/01/20 13:31:17;;;;;;;12.07;2.95;;;;;;;2.60;61.80;99869.78;2176935;81;27680;-58
2022/01/20 13:34:19;;;;;;;13.48;4.30;;;;;;;2.57;61.71;99869.38;2237656;79;28823;-59
2022/01/20 13:37:22;;;;;;;10.10;3.60;;;;;;;2.50;61.30;99869.13;2176853;81;32175;-59
2022/01/20 13:40:24;;;;;;;10.48;3.33;;;;;;;2.37;61.36;99879.10;2237020;79;33360;-60
2022/01/20 13:47:04;;;;;;;13.18;3.83;;;;;;;2.15;61.39;99892.81;2237715;79;27675;-58
2022/01/20 13:50:07;;;;;;;14.93;3.92;;;;;;;2.01;61.55;99866.68;2176472;81;29371;-63
2022/01/20 13:53:20;;;;;;;13.48;3.25;;;;;;;1.98;61.63;99864.09;2241279;79;31023;-65
2022/01/20 13:56:21;;;;;;;11.78;3.12;;;;;;;1.99;61.55;99880.38;2176669;81;32935;-60
2022/01/20 13:59:23;;;;;;;12.90;3.90;;;;;;;1.97;61.20;99867.20;2237421;79;29107;-65
2022/01/20 14:02:25;;;;;;;11.97;2.67;;;;;;;1.94;61.39;99874.30;2173475;81;27665;-61
2022/01/20 14:05:31;;;;;;;15.15;6.35;;;;;;;1.88;61.43;99887.19;2226548;79;29379;-61
2022/01/20 14:08:36;;;;;;;18.80;7.87;;;;;;;1.82;61.37;99886.02;2218950;79;31505;-62
2022/01/20 14:11:37;;;;;;;14.95;3.90;;;;;;;1.75;61.60;99893.17;2228340;79;33523;-61
2022/01/20 14:14:38;;;;;;;16.00;2.77;;;;;;;1.69;61.58;99888.03;2229201;79;30548;-61
2022/01/20 14:17:51;;;;;;;13.93;2.55;;;;;;;1.62;61.54;99904.88;2229446;79;27713;-62
2022/01/20 14:20:50;;;;;;;15.38;2.80;;;;;;;1.58;61.87;99910.67;2228666;79;28791;-65
2022/01/20 14:23:52;;;;;;;12.50;2.35;;;;;;;1.56;61.62;99919.53;2229591;79;31037;-61
2022/01/20 14:26:58;;;;;;;17.02;3.02;;;;;;;1.54;61.86;99918.69;2229119;79;34216;-62
2022/01/20 14:29:59;;;;;;;15.85;2.65;;;;;;;1.53;61.89;99924.86;2228825;79;30618;-66
2022/01/20 14:33:01;;;;;;;9.75;2.87;;;;;;;1.52;61.67;99914.73;2229637;79;27712;-60
2022/01/20 14:36:03;;;;;;;12.68;3.12;;;;;;;1.54;61.94;99931.89;2203048;79;29255;-58
2022/01/20 14:39:05;;;;;;;13.20;3.65;;;;;;;1.54;62.11;99926.14;2229627;79;30923;-59
2022/01/20 14:42:10;;;;;;;13.93;3.40;;;;;;;1.53;61.79;99927.04;2229344;79;33843;-57
2022/01/20 14:45:17;;;;;;;15.10;2.77;;;;;;;1.53;62.06;99927.50;2229899;78;33448;-59
2022/01/20 14:48:19;;;;;;;14.98;3.90;;;;;;;1.53;61.86;99942.02;2146474;81;27743;-58
2022/01/20 14:51:25;;;;;;;18.02;4.22;;;;;;;1.48;61.49;99943.44;2212510;79;28687;-58
2022/01/20 14:54:26;;;;;;;11.57;3.65;;;;;;;1.44;61.67;99946.55;2229540;79;31010;-58
2022/01/20 14:57:29;;;;;;;17.57;2.47;;;;;;;1.36;61.40;99948.02;2229973;78;33388;-59
2022/01/20 15:00:31;;;;;;;13.95;3.30;;;;;;;1.29;61.57;99959.59;2229724;78;29393;-60
2022/01/20 15:03:33;;;;;;;16.32;4.03;;;;;;;1.21;61.74;99962.36;2145729;82;27643;-58
2022/01/20 15:06:34;;;;;;;13.15;3.60;;;;;;;1.16;61.79;99954.95;2221565;78;28670;-59
2022/01/20 15:09:36;;;;;;;14.05;2.90;;;;;;;1.08;61.74;99959.94;2262509;78;30966;-59
2022/01/20 15:12:39;;;;;;;14.43;4.15;;;;;;;0.99;61.85;99974.14;2234088;78;34156;-58
2022/01/20 15:15:41;;;;;;;18.57;5.55;;;;;;;0.89;61.59;99974.30;2222506;78;30103;-58
2022/01/20 15:18:43;;;;;;;19.48;3.45;;;;;;;0.82;61.87;99975.73;2222530;78;27555;-57
2022/01/20 15:21:45;;;;;;;14.70;4.03;;;;;;;0.72;61.96;99971.89;2222620;80;29461;-59
2022/01/20 15:24:48;;;;;;;15.15;3.90;;;;;;;0.64;62.11;99968.52;2222020;80;32347;-60
2022/01/20 15:27:50;;;;;;;13.38;3.75;;;;;;;0.56;61.96;99979.16;2222067;80;34865;-58
2022/01/20 15:30:52;;;;;;;13.45;3.20;;;;;;;0.49;62.04;99984.55;2222337;80;30437;-61
2022/01/20 15:33:55;;;;;;;18.52;3.67;;;;;;;0.43;62.19;99990.73;2222521;80;27638;-57